sensor_id;sensor_type;location;lat;lon;timestamp;temperature;humidity
14739;DHT22;7461;52.440;13.540;2023-03-23T00:00:52;12.40;99.90
14739;DHT22;7461;52.440;13.540;2023-03-23T00:03:20;12.30;99.90
14739;DHT22;7461;52.440;13.540;2023-03-23T00:05:51;12.30;99.90
14739;DHT22;7461;52.440;13.540;2023-03-23T00:08:20;12.30;99.90
14739;DHT22;7461;52.440;13.540;2023-03-23T00:10:50;12.20;99.90
14739;DHT22;7461;52.440;13.540;2023-03-23T00:13:18;12.20;99.90
14739;DHT22;7461;52.440;13.540;2023-03-23T00:15:46;12.20;99.90
14739;DHT22;7461;52.440;13.540;2023-03-23T00:18:15;12.20;99.90
14739;DHT22;7461;52.440;13.540;2023-03-23T00:20:48;12.20;99.90
14739;DHT22;7461;52.440;13.540;2023-03-23T00:23:15;12.10;99.90
14739;DHT22;7461;52.440;13.540;2023-03-23T00:25:47;12.10;99.90
14739;DHT22;7461;52.440;13.540;2023-03-23T00:28:15;12.10;99.90
14739;DHT22;7461;52.440;13.540;2023-03-23T00:30:42;12.10;99.90
14739;DHT22;7461;52.440;13.540;2023-03-23T00:33:11;12.00;99.90
14739;DHT22;7461;52.440;13.540;2023-03-23T00:35:40;12.00;99.90
14739;DHT22;7461;52.440;13.540;2023-03-23T00:38:07;12.00;99.90
14739;DHT22;7461;52.440;13.540;2023-03-23T00:40:35;12.00;99.90
14739;DHT22;7461;52.440;13.540;2023-03-23T00:43:04;12.00;99.90
14739;DHT22;7461;52.440;13.540;2023-03-23T00:45:31;12.00;99.90
14739;DHT22;7461;52.440;13.540;2023-03-23T00:48:00;11.90;99.90
14739;DHT22;7461;52.440;13.540;2023-03-23T00:50:30;11.90;99.90
14739;DHT22;7461;52.440;13.540;2023-03-23T00:52:57;11.90;99.90
14739;DHT22;7461;52.440;13.540;2023-03-23T00:55:25;11.90;99.90
14739;DHT22;7461;52.440;13.540;2023-03-23T00:57:56;11.90;99.90
14739;DHT22;7461;52.440;13.540;2023-03-23T01:00:24;11.90;99.90
14739;DHT22;7461;52.440;13.540;2023-03-23T01:02:52;11.80;99.90
14739;DHT22;7461;52.440;13.540;2023-03-23T01:05:19;11.80;99.90
14739;DHT22;7461;52.440;13.540;2023-03-23T01:07:46;11.80;99.90
14739;DHT22;7461;52.440;13.540;2023-03-23T01:10:14;11.70;99.90
14739;DHT22;7461;52.440;13.540;2023-03-23T01:12:44;11.70;99.90
14739;DHT22;7461;52.440;13.540;2023-03-23T01:15:16;11.60;99.90
14739;DHT22;7461;52.440;13.540;2023-03-23T01:17:45;11.60;99.90
14739;DHT22;7461;52.440;13.540;2023-03-23T01:20:13;11.60;99.90
14739;DHT22;7461;52.440;13.540;2023-03-23T01:22:41;11.60;99.90
14739;DHT22;7461;52.440;13.540;2023-03-23T01:25:10;11.60;99.90
14739;DHT22;7461;52.440;13.540;2023-03-23T01:27:39;11.50;99.90
14739;DHT22;7461;52.440;13.540;2023-03-23T01:30:08;11.50;99.90
14739;DHT22;7461;52.440;13.540;2023-03-23T01:32:35;11.50;99.90
14739;DHT22;7461;52.440;13.540;2023-03-23T01:35:04;11.50;99.90
14739;DHT22;7461;52.440;13.540;2023-03-23T01:37:31;11.50;99.90
14739;DHT22;7461;52.440;13.540;2023-03-23T01:39:58;11.50;99.90
14739;DHT22;7461;52.440;13.540;2023-03-23T01:42:31;11.50;99.90
14739;DHT22;7461;52.440;13.540;2023-03-23T01:45:22;11.40;99.90
14739;DHT22;7461;52.440;13.540;2023-03-23T01:47:52;11.50;99.90
14739;DHT22;7461;52.440;13.540;2023-03-23T01:50:24;11.40;99.90
14739;DHT22;7461;52.440;13.540;2023-03-23T01:52:53;11.40;99.90
14739;DHT22;7461;52.440;13.540;2023-03-23T01:55:22;11.40;99.90
14739;DHT22;7461;52.440;13.540;2023-03-23T01:57:51;11.40;99.90
14739;DHT22;7461;52.440;13.540;2023-03-23T02:00:18;11.30;99.90
14739;DHT22;7461;52.440;13.540;2023-03-23T02:02:48;11.30;99.90
14739;DHT22;7461;52.440;13.540;2023-03-23T02:05:21;11.30;99.90
14739;DHT22;7461;52.440;13.540;2023-03-23T02:07:50;11.30;99.90
14739;DHT22;7461;52.440;13.540;2023-03-23T02:10:18;11.30;99.90
14739;DHT22;7461;52.440;13.540;2023-03-23T02:12:45;11.30;99.90
14739;DHT22;7461;52.440;13.540;2023-03-23T02:15:12;11.30;99.90
14739;DHT22;7461;52.440;13.540;2023-03-23T02:17:43;11.30;99.90
14739;DHT22;7461;52.440;13.540;2023-03-23T02:20:38;11.30;99.90
14739;DHT22;7461;52.440;13.540;2023-03-23T02:23:23;11.30;99.90
14739;DHT22;7461;52.440;13.540;2023-03-23T02:25:59;11.30;99.90
14739;DHT22;7461;52.440;13.540;2023-03-23T02:31:49;11.30;99.90
14739;DHT22;7461;52.440;13.540;2023-03-23T02:34:26;11.20;99.90
14739;DHT22;7461;52.440;13.540;2023-03-23T02:36:58;11.30;99.90
14739;DHT22;7461;52.440;13.540;2023-03-23T02:39:30;11.30;99.90
14739;DHT22;7461;52.440;13.540;2023-03-23T02:42:04;11.30;99.90
14739;DHT22;7461;52.440;13.540;2023-03-23T02:44:34;11.30;99.90
14739;DHT22;7461;52.440;13.540;2023-03-23T02:47:05;11.30;99.90
14739;DHT22;7461;52.440;13.540;2023-03-23T02:49:37;11.40;99.90
14739;DHT22;7461;52.440;13.540;2023-03-23T02:52:09;11.40;99.90
14739;DHT22;7461;52.440;13.540;2023-03-23T02:54:41;11.40;99.90
14739;DHT22;7461;52.440;13.540;2023-03-23T02:57:10;11.40;99.90
14739;DHT22;7461;52.440;13.540;2023-03-23T02:59:38;11.50;99.90
14739;DHT22;7461;52.440;13.540;2023-03-23T03:02:07;11.50;99.90
14739;DHT22;7461;52.440;13.540;2023-03-23T03:04:39;11.50;99.90
14739;DHT22;7461;52.440;13.540;2023-03-23T03:07:22;11.50;99.90
14739;DHT22;7461;52.440;13.540;2023-03-23T03:09:53;11.60;99.90
14739;DHT22;7461;52.440;13.540;2023-03-23T03:12:27;11.60;99.90
14739;DHT22;7461;52.440;13.540;2023-03-23T03:15:06;11.60;99.90
14739;DHT22;7461;52.440;13.540;2023-03-23T03:17:39;11.70;99.90
14739;DHT22;7461;52.440;13.540;2023-03-23T03:20:11;11.70;99.90
14739;DHT22;7461;52.440;13.540;2023-03-23T03:22:41;11.70;99.90
14739;DHT22;7461;52.440;13.540;2023-03-23T03:25:12;11.70;99.90
14739;DHT22;7461;52.440;13.540;2023-03-23T03:27:41;11.80;99.90
14739;DHT22;7461;52.440;13.540;2023-03-23T03:30:13;11.80;99.90
14739;DHT22;7461;52.440;13.540;2023-03-23T03:32:44;11.90;99.90
14739;DHT22;7461;52.440;13.540;2023-03-23T03:35:16;11.90;99.90
14739;DHT22;7461;52.440;13.540;2023-03-23T03:37:43;11.90;99.90
14739;DHT22;7461;52.440;13.540;2023-03-23T03:40:14;11.90;99.90
14739;DHT22;7461;52.440;13.540;2023-03-23T03:42:43;11.90;99.90
14739;DHT22;7461;52.440;13.540;2023-03-23T03:45:13;11.90;99.90
14739;DHT22;7461;52.440;13.540;2023-03-23T03:47:40;12.00;99.90
14739;DHT22;7461;52.440;13.540;2023-03-23T03:50:08;12.00;99.90
14739;DHT22;7461;52.440;13.540;2023-03-23T03:52:37;12.00;99.90
14739;DHT22;7461;52.440;13.540;2023-03-23T03:55:06;12.00;99.90
14739;DHT22;7461;52.440;13.540;2023-03-23T03:57:34;12.00;99.90
14739;DHT22;7461;52.440;13.540;2023-03-23T04:00:01;12.00;99.90
14739;DHT22;7461;52.440;13.540;2023-03-23T04:02:38;12.00;99.90
14739;DHT22;7461;52.440;13.540;2023-03-23T04:05:06;12.00;99.90
14739;DHT22;7461;52.440;13.540;2023-03-23T04:07:36;12.00;99.90
14739;DHT22;7461;52.440;13.540;2023-03-23T04:10:06;12.00;99.90
14739;DHT22;7461;52.440;13.540;2023-03-23T04:12:33;12.00;99.90
14739;DHT22;7461;52.440;13.540;2023-03-23T04:15:01;12.00;99.90
14739;DHT22;7461;52.440;13.540;2023-03-23T04:17:28;12.00;99.90
14739;DHT22;7461;52.440;13.540;2023-03-23T04:19:55;12.00;99.90
14739;DHT22;7461;52.440;13.540;2023-03-23T04:22:25;12.00;99.90
14739;DHT22;7461;52.440;13.540;2023-03-23T04:24:57;12.00;99.90
14739;DHT22;7461;52.440;13.540;2023-03-23T04:27:26;11.90;99.90
14739;DHT22;7461;52.440;13.540;2023-03-23T04:29:54;11.90;99.90
14739;DHT22;7461;52.440;13.540;2023-03-23T04:32:22;11.90;99.90
14739;DHT22;7461;52.440;13.540;2023-03-23T04:34:50;11.90;99.90
14739;DHT22;7461;52.440;13.540;2023-03-23T04:37:17;11.90;99.90
14739;DHT22;7461;52.440;13.540;2023-03-23T04:39:45;11.90;99.90
14739;DHT22;7461;52.440;13.540;2023-03-23T04:42:13;11.90;99.90
14739;DHT22;7461;52.440;13.540;2023-03-23T04:44:40;11.80;99.90
14739;DHT22;7461;52.440;13.540;2023-03-23T04:47:09;11.80;99.90
14739;DHT22;7461;52.440;13.540;2023-03-23T04:49:36;11.80;99.90
14739;DHT22;7461;52.440;13.540;2023-03-23T04:52:04;11.70;99.90
14739;DHT22;7461;52.440;13.540;2023-03-23T04:54:31;11.70;99.90
14739;DHT22;7461;52.440;13.540;2023-03-23T04:56:58;11.70;99.90
14739;DHT22;7461;52.440;13.540;2023-03-23T04:59:26;11.70;99.90
14739;DHT22;7461;52.440;13.540;2023-03-23T05:01:54;11.70;99.90
14739;DHT22;7461;52.440;13.540;2023-03-23T05:04:23;11.70;99.90
14739;DHT22;7461;52.440;13.540;2023-03-23T05:06:51;11.70;99.90
14739;DHT22;7461;52.440;13.540;2023-03-23T05:09:18;11.70;99.90
14739;DHT22;7461;52.440;13.540;2023-03-23T05:11:45;11.70;99.90
14739;DHT22;7461;52.440;13.540;2023-03-23T05:14:12;11.70;99.90
14739;DHT22;7461;52.440;13.540;2023-03-23T05:16:41;11.70;99.90
14739;DHT22;7461;52.440;13.540;2023-03-23T05:19:07;11.70;99.90
14739;DHT22;7461;52.440;13.540;2023-03-23T05:21:34;11.60;99.90
14739;DHT22;7461;52.440;13.540;2023-03-23T05:24:03;11.60;99.90
14739;DHT22;7461;52.440;13.540;2023-03-23T05:26:29;11.50;99.90
14739;DHT22;7461;52.440;13.540;2023-03-23T05:28:58;11.50;99.90
14739;DHT22;7461;52.440;13.540;2023-03-23T05:31:25;11.50;99.90
14739;DHT22;7461;52.440;13.540;2023-03-23T05:33:53;11.50;99.90
14739;DHT22;7461;52.440;13.540;2023-03-23T05:36:20;11.50;99.90
14739;DHT22;7461;52.440;13.540;2023-03-23T05:38:48;11.50;99.90
14739;DHT22;7461;52.440;13.540;2023-03-23T05:41:15;11.50;99.90
14739;DHT22;7461;52.440;13.540;2023-03-23T05:43:42;11.50;99.90
14739;DHT22;7461;52.440;13.540;2023-03-23T05:46:09;11.50;99.90
14739;DHT22;7461;52.440;13.540;2023-03-23T05:48:36;11.50;99.90
14739;DHT22;7461;52.440;13.540;2023-03-23T05:51:05;11.50;99.90
14739;DHT22;7461;52.440;13.540;2023-03-23T05:53:32;11.50;99.90
14739;DHT22;7461;52.440;13.540;2023-03-23T05:55:59;11.50;99.90
14739;DHT22;7461;52.440;13.540;2023-03-23T05:58:26;11.40;99.90
14739;DHT22;7461;52.440;13.540;2023-03-23T06:00:53;11.40;99.90
14739;DHT22;7461;52.440;13.540;2023-03-23T06:03:21;11.40;99.90
14739;DHT22;7461;52.440;13.540;2023-03-23T06:05:48;11.40;99.90
14739;DHT22;7461;52.440;13.540;2023-03-23T06:08:17;11.40;99.90
14739;DHT22;7461;52.440;13.540;2023-03-23T06:10:44;11.40;99.90
14739;DHT22;7461;52.440;13.540;2023-03-23T06:13:11;11.30;99.90
14739;DHT22;7461;52.440;13.540;2023-03-23T06:15:38;11.30;99.90
14739;DHT22;7461;52.440;13.540;2023-03-23T06:18:06;11.30;99.90
14739;DHT22;7461;52.440;13.540;2023-03-23T06:20:33;11.30;99.90
14739;DHT22;7461;52.440;13.540;2023-03-23T06:23:00;11.20;99.90
14739;DHT22;7461;52.440;13.540;2023-03-23T06:25:30;11.20;99.90
14739;DHT22;7461;52.440;13.540;2023-03-23T06:27:57;11.20;99.90
14739;DHT22;7461;52.440;13.540;2023-03-23T06:30:25;11.10;99.90
14739;DHT22;7461;52.440;13.540;2023-03-23T06:32:52;11.10;99.90
14739;DHT22;7461;52.440;13.540;2023-03-23T06:35:19;11.10;99.90
14739;DHT22;7461;52.440;13.540;2023-03-23T06:37:46;11.10;99.90
14739;DHT22;7461;52.440;13.540;2023-03-23T06:40:13;11.10;99.90
14739;DHT22;7461;52.440;13.540;2023-03-23T06:42:45;11.10;99.90
14739;DHT22;7461;52.440;13.540;2023-03-23T06:45:12;11.10;99.90
14739;DHT22;7461;52.440;13.540;2023-03-23T06:47:39;11.10;99.90
14739;DHT22;7461;52.440;13.540;2023-03-23T06:50:07;11.00;99.90
14739;DHT22;7461;52.440;13.540;2023-03-23T06:52:34;11.00;99.90
14739;DHT22;7461;52.440;13.540;2023-03-23T06:55:01;11.00;99.90
14739;DHT22;7461;52.440;13.540;2023-03-23T06:57:28;11.00;99.90
14739;DHT22;7461;52.440;13.540;2023-03-23T06:59:56;11.00;99.90
14739;DHT22;7461;52.440;13.540;2023-03-23T07:02:23;11.00;99.90
14739;DHT22;7461;52.440;13.540;2023-03-23T07:04:51;11.00;99.90
14739;DHT22;7461;52.440;13.540;2023-03-23T07:07:19;11.00;99.90
14739;DHT22;7461;52.440;13.540;2023-03-23T07:09:46;11.00;99.90
14739;DHT22;7461;52.440;13.540;2023-03-23T07:12:13;11.00;99.90
14739;DHT22;7461;52.440;13.540;2023-03-23T07:14:41;11.00;99.90
14739;DHT22;7461;52.440;13.540;2023-03-23T07:17:09;11.00;99.90
14739;DHT22;7461;52.440;13.540;2023-03-23T07:19:37;11.00;99.90
14739;DHT22;7461;52.440;13.540;2023-03-23T07:22:04;11.00;99.90
14739;DHT22;7461;52.440;13.540;2023-03-23T07:24:32;11.00;99.90
14739;DHT22;7461;52.440;13.540;2023-03-23T07:26:59;11.00;99.90
14739;DHT22;7461;52.440;13.540;2023-03-23T07:29:26;11.00;99.90
14739;DHT22;7461;52.440;13.540;2023-03-23T07:31:53;11.00;99.90
14739;DHT22;7461;52.440;13.540;2023-03-23T07:34:21;11.10;99.90
14739;DHT22;7461;52.440;13.540;2023-03-23T07:36:48;11.00;99.90
14739;DHT22;7461;52.440;13.540;2023-03-23T07:39:15;11.10;99.90
14739;DHT22;7461;52.440;13.540;2023-03-23T07:41:42;11.00;99.90
14739;DHT22;7461;52.440;13.540;2023-03-23T07:44:09;11.10;99.90
14739;DHT22;7461;52.440;13.540;2023-03-23T07:46:36;11.10;99.90
14739;DHT22;7461;52.440;13.540;2023-03-23T07:49:04;11.10;99.90
14739;DHT22;7461;52.440;13.540;2023-03-23T07:51:32;11.10;99.90
14739;DHT22;7461;52.440;13.540;2023-03-23T07:54:00;11.10;99.90
14739;DHT22;7461;52.440;13.540;2023-03-23T07:56:28;11.20;99.90
14739;DHT22;7461;52.440;13.540;2023-03-23T07:58:55;11.20;99.90
14739;DHT22;7461;52.440;13.540;2023-03-23T08:01:22;11.20;99.90
14739;DHT22;7461;52.440;13.540;2023-03-23T08:03:50;11.20;99.90
14739;DHT22;7461;52.440;13.540;2023-03-23T08:06:17;11.20;99.90
14739;DHT22;7461;52.440;13.540;2023-03-23T08:08:46;11.20;99.90
14739;DHT22;7461;52.440;13.540;2023-03-23T08:11:13;11.20;99.90
14739;DHT22;7461;52.440;13.540;2023-03-23T08:13:40;11.20;99.90
14739;DHT22;7461;52.440;13.540;2023-03-23T08:16:08;11.20;99.90
14739;DHT22;7461;52.440;13.540;2023-03-23T08:18:35;11.30;99.90
14739;DHT22;7461;52.440;13.540;2023-03-23T08:21:03;11.30;99.90
14739;DHT22;7461;52.440;13.540;2023-03-23T08:23:31;11.30;99.90
14739;DHT22;7461;52.440;13.540;2023-03-23T08:25:59;11.30;99.90
14739;DHT22;7461;52.440;13.540;2023-03-23T08:28:27;11.40;99.90
14739;DHT22;7461;52.440;13.540;2023-03-23T08:30:53;11.50;99.90
14739;DHT22;7461;52.440;13.540;2023-03-23T08:33:21;11.50;99.90
14739;DHT22;7461;52.440;13.540;2023-03-23T08:35:55;11.50;99.90
14739;DHT22;7461;52.440;13.540;2023-03-23T08:38:22;11.50;99.90
14739;DHT22;7461;52.440;13.540;2023-03-23T08:40:49;11.50;99.90
14739;DHT22;7461;52.440;13.540;2023-03-23T08:43:18;11.60;99.90
14739;DHT22;7461;52.440;13.540;2023-03-23T08:45:45;11.60;99.90
14739;DHT22;7461;52.440;13.540;2023-03-23T08:48:13;11.70;99.90
14739;DHT22;7461;52.440;13.540;2023-03-23T08:50:40;11.70;99.90
14739;DHT22;7461;52.440;13.540;2023-03-23T08:53:07;11.70;99.90
14739;DHT22;7461;52.440;13.540;2023-03-23T08:55:34;11.70;99.90
14739;DHT22;7461;52.440;13.540;2023-03-23T08:58:01;11.80;99.90
14739;DHT22;7461;52.440;13.540;2023-03-23T09:00:30;11.80;99.90
14739;DHT22;7461;52.440;13.540;2023-03-23T09:02:58;11.90;99.90
14739;DHT22;7461;52.440;13.540;2023-03-23T09:05:27;11.90;99.90
14739;DHT22;7461;52.440;13.540;2023-03-23T09:07:56;11.90;99.90
14739;DHT22;7461;52.440;13.540;2023-03-23T09:10:25;12.00;99.90
14739;DHT22;7461;52.440;13.540;2023-03-23T09:12:53;12.00;99.90
14739;DHT22;7461;52.440;13.540;2023-03-23T09:15:21;12.10;99.90
14739;DHT22;7461;52.440;13.540;2023-03-23T09:17:51;12.20;99.90
14739;DHT22;7461;52.440;13.540;2023-03-23T09:20:21;12.30;99.90
14739;DHT22;7461;52.440;13.540;2023-03-23T09:22:52;12.30;99.90
14739;DHT22;7461;52.440;13.540;2023-03-23T09:25:22;12.40;99.90
14739;DHT22;7461;52.440;13.540;2023-03-23T09:27:52;12.40;99.90
14739;DHT22;7461;52.440;13.540;2023-03-23T09:30:22;12.40;99.90
14739;DHT22;7461;52.440;13.540;2023-03-23T09:32:51;12.40;99.90
14739;DHT22;7461;52.440;13.540;2023-03-23T09:35:18;12.50;99.90
14739;DHT22;7461;52.440;13.540;2023-03-23T09:37:47;12.50;99.90
14739;DHT22;7461;52.440;13.540;2023-03-23T09:40:17;12.50;99.90
14739;DHT22;7461;52.440;13.540;2023-03-23T09:42:56;12.60;99.90
14739;DHT22;7461;52.440;13.540;2023-03-23T09:45:27;12.60;99.90
14739;DHT22;7461;52.440;13.540;2023-03-23T09:48:19;12.60;99.90
14739;DHT22;7461;52.440;13.540;2023-03-23T09:50:49;12.70;99.90
14739;DHT22;7461;52.440;13.540;2023-03-23T09:53:21;12.80;99.90
14739;DHT22;7461;52.440;13.540;2023-03-23T09:55:49;13.00;99.90
14739;DHT22;7461;52.440;13.540;2023-03-23T09:58:20;13.10;99.90
14739;DHT22;7461;52.440;13.540;2023-03-23T10:00:54;13.30;99.90
14739;DHT22;7461;52.440;13.540;2023-03-23T10:03:27;13.40;99.90
14739;DHT22;7461;52.440;13.540;2023-03-23T10:05:56;13.50;99.90
14739;DHT22;7461;52.440;13.540;2023-03-23T10:08:26;13.50;99.90
14739;DHT22;7461;52.440;13.540;2023-03-23T10:11:00;13.60;99.90
14739;DHT22;7461;52.440;13.540;2023-03-23T10:13:40;13.60;99.90
14739;DHT22;7461;52.440;13.540;2023-03-23T10:16:11;13.60;99.90
14739;DHT22;7461;52.440;13.540;2023-03-23T10:18:43;13.60;99.90
14739;DHT22;7461;52.440;13.540;2023-03-23T10:21:14;13.60;99.90
14739;DHT22;7461;52.440;13.540;2023-03-23T10:23:53;13.60;99.90
14739;DHT22;7461;52.440;13.540;2023-03-23T10:26:35;13.70;99.90
14739;DHT22;7461;52.440;13.540;2023-03-23T10:29:15;13.70;99.90
14739;DHT22;7461;52.440;13.540;2023-03-23T10:31:46;13.80;99.90
14739;DHT22;7461;52.440;13.540;2023-03-23T10:34:20;13.80;99.90
14739;DHT22;7461;52.440;13.540;2023-03-23T10:37:03;13.80;99.90
14739;DHT22;7461;52.440;13.540;2023-03-23T10:39:38;13.80;99.90
14739;DHT22;7461;52.440;13.540;2023-03-23T10:42:08;13.90;99.90
14739;DHT22;7461;52.440;13.540;2023-03-23T10:44:36;14.00;99.90
14739;DHT22;7461;52.440;13.540;2023-03-23T10:47:06;14.00;99.90
14739;DHT22;7461;52.440;13.540;2023-03-23T10:49:40;14.00;99.90
14739;DHT22;7461;52.440;13.540;2023-03-23T10:52:17;14.10;99.90
14739;DHT22;7461;52.440;13.540;2023-03-23T10:54:50;14.10;99.90
14739;DHT22;7461;52.440;13.540;2023-03-23T10:57:22;14.10;99.90
14739;DHT22;7461;52.440;13.540;2023-03-23T10:59:50;14.00;99.90
14739;DHT22;7461;52.440;13.540;2023-03-23T11:02:18;14.10;99.90
14739;DHT22;7461;52.440;13.540;2023-03-23T11:04:56;14.00;99.90
14739;DHT22;7461;52.440;13.540;2023-03-23T11:07:29;14.10;99.90
14739;DHT22;7461;52.440;13.540;2023-03-23T11:10:05;14.10;99.90
14739;DHT22;7461;52.440;13.540;2023-03-23T11:12:34;14.10;99.90
14739;DHT22;7461;52.440;13.540;2023-03-23T11:15:30;14.10;99.90
14739;DHT22;7461;52.440;13.540;2023-03-23T11:18:00;14.20;99.90
14739;DHT22;7461;52.440;13.540;2023-03-23T11:20:35;14.20;99.90
14739;DHT22;7461;52.440;13.540;2023-03-23T11:23:10;14.20;99.90
14739;DHT22;7461;52.440;13.540;2023-03-23T11:25:53;14.20;99.90
14739;DHT22;7461;52.440;13.540;2023-03-23T11:28:21;14.20;99.90
14739;DHT22;7461;52.440;13.540;2023-03-23T11:30:55;14.30;99.90
14739;DHT22;7461;52.440;13.540;2023-03-23T11:33:49;14.30;99.90
14739;DHT22;7461;52.440;13.540;2023-03-23T11:36:55;14.30;99.90
14739;DHT22;7461;52.440;13.540;2023-03-23T11:39:27;14.40;99.90
14739;DHT22;7461;52.440;13.540;2023-03-23T11:42:20;14.40;99.90
14739;DHT22;7461;52.440;13.540;2023-03-23T11:44:48;14.40;99.90
14739;DHT22;7461;52.440;13.540;2023-03-23T11:47:20;14.40;99.90
14739;DHT22;7461;52.440;13.540;2023-03-23T11:49:53;14.50;99.90
14739;DHT22;7461;52.440;13.540;2023-03-23T11:52:32;14.60;99.90
14739;DHT22;7461;52.440;13.540;2023-03-23T11:55:08;14.60;99.90
14739;DHT22;7461;52.440;13.540;2023-03-23T11:57:41;14.60;99.90
14739;DHT22;7461;52.440;13.540;2023-03-23T12:00:17;14.70;99.90
14739;DHT22;7461;52.440;13.540;2023-03-23T12:05:46;14.80;99.90
14739;DHT22;7461;52.440;13.540;2023-03-23T12:08:26;14.80;99.90
14739;DHT22;7461;52.440;13.540;2023-03-23T12:11:03;14.90;99.90
14739;DHT22;7461;52.440;13.540;2023-03-23T12:13:51;15.00;99.90
14739;DHT22;7461;52.440;13.540;2023-03-23T12:16:29;15.00;99.90
14739;DHT22;7461;52.440;13.540;2023-03-23T12:19:15;15.00;99.90
14739;DHT22;7461;52.440;13.540;2023-03-23T12:22:02;15.10;99.90
14739;DHT22;7461;52.440;13.540;2023-03-23T12:24:56;15.10;99.90
14739;DHT22;7461;52.440;13.540;2023-03-23T12:27:45;15.20;99.90
14739;DHT22;7461;52.440;13.540;2023-03-23T12:34:17;15.20;99.90
14739;DHT22;7461;52.440;13.540;2023-03-23T12:37:09;15.20;99.90
14739;DHT22;7461;52.440;13.540;2023-03-23T12:43:19;15.30;99.90
14739;DHT22;7461;52.440;13.540;2023-03-23T12:49:07;15.30;99.90
14739;DHT22;7461;52.440;13.540;2023-03-23T12:51:45;15.20;99.90
14739;DHT22;7461;52.440;13.540;2023-03-23T12:54:21;15.30;99.90
14739;DHT22;7461;52.440;13.540;2023-03-23T12:56:54;15.30;99.90
14739;DHT22;7461;52.440;13.540;2023-03-23T12:59:32;15.30;99.90
14739;DHT22;7461;52.440;13.540;2023-03-23T13:02:31;15.30;99.90
14739;DHT22;7461;52.440;13.540;2023-03-23T13:05:11;15.30;99.90
14739;DHT22;7461;52.440;13.540;2023-03-23T13:07:48;15.30;99.90
14739;DHT22;7461;52.440;13.540;2023-03-23T13:10:32;15.30;99.90
14739;DHT22;7461;52.440;13.540;2023-03-23T13:13:16;15.40;99.90
14739;DHT22;7461;52.440;13.540;2023-03-23T13:15:58;15.40;99.90
14739;DHT22;7461;52.440;13.540;2023-03-23T13:18:38;15.60;99.90
14739;DHT22;7461;52.440;13.540;2023-03-23T13:21:15;15.70;99.90
14739;DHT22;7461;52.440;13.540;2023-03-23T13:27:35;15.90;99.90
14739;DHT22;7461;52.440;13.540;2023-03-23T13:31:11;16.00;99.90
14739;DHT22;7461;52.440;13.540;2023-03-23T13:34:04;16.10;99.90
14739;DHT22;7461;52.440;13.540;2023-03-23T13:40:40;16.10;99.90
14739;DHT22;7461;52.440;13.540;2023-03-23T13:43:26;16.10;99.90
14739;DHT22;7461;52.440;13.540;2023-03-23T13:45:54;16.20;99.90
14739;DHT22;7461;52.440;13.540;2023-03-23T13:48:24;16.20;99.90
14739;DHT22;7461;52.440;13.540;2023-03-23T13:50:55;16.20;99.90
14739;DHT22;7461;52.440;13.540;2023-03-23T13:53:26;16.30;99.90
14739;DHT22;7461;52.440;13.540;2023-03-23T13:56:06;16.30;99.90
14739;DHT22;7461;52.440;13.540;2023-03-23T13:58:45;16.30;99.90
14739;DHT22;7461;52.440;13.540;2023-03-23T14:01:15;16.20;99.90
14739;DHT22;7461;52.440;13.540;2023-03-23T14:03:46;16.20;99.90
14739;DHT22;7461;52.440;13.540;2023-03-23T14:06:19;16.10;99.90
14739;DHT22;7461;52.440;13.540;2023-03-23T14:08:50;16.10;99.90
14739;DHT22;7461;52.440;13.540;2023-03-23T14:11:32;16.10;99.90
14739;DHT22;7461;52.440;13.540;2023-03-23T14:14:13;16.20;99.90
14739;DHT22;7461;52.440;13.540;2023-03-23T14:16:42;16.20;99.90
14739;DHT22;7461;52.440;13.540;2023-03-23T14:19:22;16.10;99.90
14739;DHT22;7461;52.440;13.540;2023-03-23T14:21:54;16.10;99.90
14739;DHT22;7461;52.440;13.540;2023-03-23T14:24:24;16.00;99.90
14739;DHT22;7461;52.440;13.540;2023-03-23T14:26:53;15.90;99.90
14739;DHT22;7461;52.440;13.540;2023-03-23T14:29:28;15.90;99.90
14739;DHT22;7461;52.440;13.540;2023-03-23T14:31:56;15.90;99.90
14739;DHT22;7461;52.440;13.540;2023-03-23T14:37:47;15.90;99.90
14739;DHT22;7461;52.440;13.540;2023-03-23T14:40:16;15.80;99.90
14739;DHT22;7461;52.440;13.540;2023-03-23T14:42:44;15.80;99.90
14739;DHT22;7461;52.440;13.540;2023-03-23T14:45:15;15.80;99.90
14739;DHT22;7461;52.440;13.540;2023-03-23T14:47:44;15.70;99.90
14739;DHT22;7461;52.440;13.540;2023-03-23T14:50:27;15.70;99.90
14739;DHT22;7461;52.440;13.540;2023-03-23T14:53:11;15.70;99.90
14739;DHT22;7461;52.440;13.540;2023-03-23T14:55:41;15.60;99.90
14739;DHT22;7461;52.440;13.540;2023-03-23T14:58:13;15.50;99.90
14739;DHT22;7461;52.440;13.540;2023-03-23T15:00:42;15.50;99.90
14739;DHT22;7461;52.440;13.540;2023-03-23T15:03:15;15.40;99.90
14739;DHT22;7461;52.440;13.540;2023-03-23T15:05:45;15.30;99.90
14739;DHT22;7461;52.440;13.540;2023-03-23T15:08:18;15.30;99.90
14739;DHT22;7461;52.440;13.540;2023-03-23T15:10:52;15.20;99.90
14739;DHT22;7461;52.440;13.540;2023-03-23T15:13:20;15.10;99.90
14739;DHT22;7461;52.440;13.540;2023-03-23T15:15:47;15.00;99.90
14739;DHT22;7461;52.440;13.540;2023-03-23T15:18:29;14.90;99.90
14739;DHT22;7461;52.440;13.540;2023-03-23T15:20:57;14.90;99.90
14739;DHT22;7461;52.440;13.540;2023-03-23T15:23:29;15.10;99.90
14739;DHT22;7461;52.440;13.540;2023-03-23T15:25:57;15.10;99.90
14739;DHT22;7461;52.440;13.540;2023-03-23T15:28:30;15.20;99.90
14739;DHT22;7461;52.440;13.540;2023-03-23T15:31:00;15.20;99.90
14739;DHT22;7461;52.440;13.540;2023-03-23T15:33:34;15.30;99.90
14739;DHT22;7461;52.440;13.540;2023-03-23T15:36:06;15.40;99.90
14739;DHT22;7461;52.440;13.540;2023-03-23T15:38:36;15.40;99.90
14739;DHT22;7461;52.440;13.540;2023-03-23T15:41:05;15.50;99.90
14739;DHT22;7461;52.440;13.540;2023-03-23T15:43:33;15.60;99.90
14739;DHT22;7461;52.440;13.540;2023-03-23T15:46:03;15.60;99.90
14739;DHT22;7461;52.440;13.540;2023-03-23T15:48:32;15.70;99.90
14739;DHT22;7461;52.440;13.540;2023-03-23T15:51:02;15.70;99.90
14739;DHT22;7461;52.440;13.540;2023-03-23T15:53:32;15.80;99.90
14739;DHT22;7461;52.440;13.540;2023-03-23T15:56:03;15.80;99.90
14739;DHT22;7461;52.440;13.540;2023-03-23T15:58:31;15.80;99.90
14739;DHT22;7461;52.440;13.540;2023-03-23T16:01:00;15.70;99.90
14739;DHT22;7461;52.440;13.540;2023-03-23T16:03:44;15.70;99.90
14739;DHT22;7461;52.440;13.540;2023-03-23T16:06:13;15.70;99.90
14739;DHT22;7461;52.440;13.540;2023-03-23T16:08:42;15.70;99.90
14739;DHT22;7461;52.440;13.540;2023-03-23T16:11:12;15.70;99.90
14739;DHT22;7461;52.440;13.540;2023-03-23T16:13:42;15.60;99.90
14739;DHT22;7461;52.440;13.540;2023-03-23T16:16:15;15.60;99.90
14739;DHT22;7461;52.440;13.540;2023-03-23T16:18:45;15.60;99.90
14739;DHT22;7461;52.440;13.540;2023-03-23T16:21:12;15.50;99.90
14739;DHT22;7461;52.440;13.540;2023-03-23T16:23:40;15.50;99.90